Extreme weather reports worldwide

Atmospheric pressure

Low pressure

Station
 
Location
 
Name
 
Wind
Knots
Gust
Knots
Vis
SM
Temp/Dew
C
Baro
inHg
METAR
 
OIKQ IR Dayrestan Airport 4 3.11 39/30 29.32 OIKQ 151400Z 14004KT 5000 HZ NSC 39/30 Q0993 NOSIG
SXI OIBS IR Sirri Island Airport 6 1.24 35/29 29.32 OIBS 151400Z 30006KT 2000 HZ NSC 35/29 Q0993
PGU OIBP Asalouyeh, IR Persian Gulf International Airport 8 1.55 39/29 29.32 OIBP 151400Z 30008KT 2500 HZ NSC 39/29 Q0993 A2934
AEU OIBA Abu Musa, IR Abu Musa Island Airport 6 1.55 36/30 29.32 OIBA 151400Z 29006KT 2500 HZ NSC 36/30 Q0993
KHS OOKB Khasab, OM Khasab Air Base 10 40/28 29.32 OOKB 151350Z 03010KT CAVOK 40/28 Q0993 NOSIG

Station
 
Location
 
Name
 
Wind
Knots
Gust
Knots
Vis
SM
Temp/Dew
C
Baro
inHg
METAR
 
SHJ OMSJ Sharjah, AE Sharjah International Airport 9 4.35 39/20 29.35 OMSJ 151400Z 31009KT 7000 NSC 39/20 Q0994 NOSIG
RKT OMRK Ras Al Khaimah, AE Ras Al Khaimah International Airport 9 4.97 38/29 29.35 OMRK 151400Z 33009KT 8000 NSC 38/29 Q0994 A2936
DXB OMDB Dubai, AE Dubai International Airport 8 2.49 38/29 29.35 OMDB 151400Z 32008KT 300V020 4000 DU NSC 38/29 Q0994 NOSIG
AZI OMAD AE Bateen Airport 10 37/28 29.35 OMAD 151400Z 33010KT CAVOK 37/28 Q0994 NOSIG
AUH OMAA Abu Dhabi, AE Abu Dhabi International Airport 13 37/28 29.35 OMAA 151400Z 30013KT CAVOK 37/28 Q0994 NOSIG
JSK OIZJ Jask, IR Jask Airport 8 3.73 33/29 29.35 OIZJ 151400Z 16008KT 6000 NSC 33/29 Q0994
ZBR OIZC Chabahar, IR Konarak Airport 12 2.49 32/28 29.35 OIZC 151400Z 14012KT 4000 HZ FEW035 32/28 Q0994 A2938
BND OIKB Bandar Abbas, IR Bandar Abbas International Airport 8 3.11 36/29 29.35 OIKB 151400Z 19008KT 5000 HZ NSC 36/29 Q0994 A2936 NOSIG
LVP OIBV IR Lavan Island Airport 6 3.73 37/26 29.35 OIBV 151400Z 35006KT 6000 NSC 37/26 Q0994
BDH OIBL Bandar Lengeh, IR Bandar Lengeh Airport 6 2.49 37/26 29.35 OIBL 151400Z 27006KT 4000 HZ NSC 37/26 Q0994
KIH OIBK Kish Island, IR Kish International Airport 8 2.49 36/30 29.35 OIBK 151400Z 26008KT 4000 HZ NSC 36/30 Q0994
OIBH IR Bastak Airport 14 37/25 29.35 OIBH 151400Z 27014KT CAVOK 37/25 Q0994 A2938
AWZ OIAW Ahwaz, IR Ahwaz Airport 8 44/10 29.35 OIAW 151400Z 28008KT CAVOK 44/10 Q0994 NOSIG
DHA OEDR SA King Abdulaziz Air Base 15 42/9 29.35 OEDR 151400Z 36015KT CAVOK 42/09 Q0994
XJD OTBH Ar Rayyan, QA Al Udeid Air Base 19 43/0 29.35 OTBH 151355Z 34019KT 9999 CLR 43/M00 A2937 Q0994 RMK AO2A SLP946 T04321001 FZRANO $
OHS OOSH Sohar, OM Sohar Airport 8 36/29 29.35 OOSH 151350Z AUTO 10008KT //// ////// 36/29 Q0994
MCT OOMS Muscat, OM Muscat International Airport 9 4.35 33/29 29.35 OOMS 151350Z 06009KT 7000 NSC 33/29 Q0994 NOSIG
NZCM 13 -27/-39 29.37 NZCM 151355Z AUTO 04013KT 9999 FEW080 M28/M39 A2937 RMK AO2 SLP952 T12761393 $
DOH OTHH Doha, QA Hamad International Airport 16 41/15 29.38 OTHH 151400Z 34016KT CAVOK 41/15 Q0995 NOSIG
DIA OTBD Doha, QA Doha International Airport 15 43/7 29.38 OTBD 151400Z AUTO 34015KT CAVOK 43/07 Q0995 NOSIG
BSR ORMM Basrah, IQ Basrah International Airport 14 45/5 29.38 ORMM 151400Z 32014KT CAVOK 45/05 Q0995 NOSIG
FJR OMFJ AE Fujairah International Airport 6 3.73 35/29 29.38 OMFJ 151400Z 14006KT 090V170 6000 NSC 35/29 Q0995 A2939
DWC OMDW Jebel Ali, AE Al Maktoum International Airport 12 3.73 38/25 29.38 OMDW 151400Z 30012KT 6000 NSC 38/25 Q0995 TEMPO 4000 DU
AAN OMAL Al Ain, AE Al Ain International Airport 11 4.97 46/15 29.38 OMAL 151400Z 31011KT 8000 NSC 46/15 Q0995 NOSIG
OICM 6 45/11 29.38 OICM 151400Z 30006KT CAVOK 45/11 Q0995
KHK OIBQ IR Khark Island Airport 6 39/21 29.38 OIBQ 151400Z 28006KT CAVOK 39/21 Q0995
BUZ OIBB Bushehr, IR Bushehr Airport 16 37/22 29.38 OIBB 151400Z 28016KT CAVOK 37/22 Q0995 A2939 NOSIG
MRX OIAM IR Mahshahr Airport 8 44/12 29.38 OIAM 151400Z 32008KT CAVOK 44/12 Q0995
AKW OIAG Aghajari, IR Aghajari Airport 16 45/9 29.38 OIAG 151400Z 30016KT CAVOK 45/09 Q0995
DMM OEDF Ad Dammam, SA King Fahd International Airport 13 43/-1 29.38 OEDF 151400Z 02013KT CAVOK 43/M01 Q0995 NOSIG
OODQ 29 29/23 29.38 OODQ 151350Z AUTO 21029KT 9999 R22///// FEW022 SCT026 29/23 Q0995 NOSIG
OOAD 8 46/14 29.38 OOAD 151350Z AUTO 27008KT 220V300 9999 // NCD 46/14 Q0995 NOSIG
BAH OBBI Manama, BH Bahrain International Airport 12 39/17 29.41 OBBI 151401Z 35012KT CAVOK 39/17 Q0996 NOSIG
TNM SCRM Isla Rey Jorge, AQ Teniente Rodolfo Marsh Martin Base 11 1.24 -1/-2 29.41 SCRM 151400Z 34011KT 2000 BR BKN003 OVC015 M01/M02 Q0996 NOSIG
ADE OYAA Aden, YE Aden International Airport 14 2.49 36/25 29.41 OYAA 151400Z 24014KT 4000 DU FEW018 SCT100 36/25 Q0996 NOSIG
OKKK 12 46/7 29.41 OKKK 151400Z 35012KT CAVOK 46/07 Q0996 NOSIG
ABD OIAA Abadan, IR Abadan Airport 12 45/9 29.41 OIAA 151400Z 31012KT CAVOK 45/09 Q0996
CWGZ 13 22 6 6/1 29.41 CWGZ 151400Z 09013G22KT 060V150 6SM -RA BR SCT008 BKN014 BKN026 OVC035 06/01 A2941 RMK FG1ST2ST2SC2SC1 SLP966
SKZ OPSK Mirpur Khas, PK Sukkur Airport 6 3.11 40/26 29.41 OPSK 151300Z 09006KT 5000 HZ FEW100 40/26 Q0996 NOSIG
KQRH 6 5.59 43/16 29.43 KQRH 151355Z AUTO 32006KT 9000 HZ CLR 44/17 A2943 RMK AO2 SLP968 WND DATA ESTMD T04390168
JRG VEJH IN Jharsuguda Airport 2 3.73 29/29 29.44 VEJH 151400Z VRB02KT 6000 FEW020 SCT100 29/29 Q0997
NJF ORNI Najaf, IQ Al Najaf International Airport 10 4.97 44/12 29.44 ORNI 151400Z 27010KT 8000 NSC 44/12 Q0997
BGW ORBI Baghdad, IQ Baghdad International Airport 7 42/14 29.44 ORBI 151400Z 25007KT 220V290 CAVOK 42/14 Q0997 NOSIG
MUX OPMT Multan, PK Multan International Airport 0 3.11 38/24 29.44 OPMT 151400Z 00000KT 5000 HZ FEW040 38/24 Q0997 NOSIG
IHR OIZI Iranshahr, IR Iran Shahr Airport 10 46/11 29.44 OIZI 151400Z 24010KT CAVOK 46/11 Q0997

High pressure

Station
 
Location
 
Name
 
Wind
Knots
Gust
Knots
Vis
SM
Temp/Dew
C
Baro
inHg
METAR
 
KMYP 17 10/1 30.87 KMYP 151355Z AUTO 30017KT 10SM CLR 10/01 A3087 RMK AO2
POI SLPO Potosí, BO Capitan Nicolas Rojas Airport 3 8/-11 30.86 SLPO 151400Z 24003KT 9999 NSC 08/M11 Q1045
KCPW 5 12/1 30.82 KCPW 151354Z AUTO 26005KT 10SM CLR 12/01 A3082 RMK AO2
KCCU 8 13/3 30.78 KCCU 151355Z AUTO 26008KT 10SM CLR 13/03 A3078 RMK AO2
K0CO 18 27 8/1 30.77 K0CO 151355Z AUTO 29018G27KT CLR 08/01 A3077 RMK AO2 PWINO

Station
 
Location
 
Name
 
Wind
Knots
Gust
Knots
Vis
SM
Temp/Dew
C
Baro
inHg
METAR
 
LPB SLLP La Paz / El Alto, BO El Alto International Airport 5 9/-14 30.74 SLLP 151400Z 31005KT 9999 NSC 09/M14 Q1041
K4BM 8 14/1 30.72 K4BM 151355Z AUTO 25008KT 10SM CLR 14/01 A3072 RMK AO2
KVTP 12 19 14/1 30.70 KVTP 151355Z AUTO 27012G19KT 10SM CLR 14/01 A3070 RMK AO2
K5SM 7 12/3 30.69 K5SM 151355Z AUTO 22007KT 10SM CLR 12/03 A3069 RMK AO2
JUL SPJL Juliaca, PE Inca Manco Capac International Airport 2 9/-15 30.68 SPJL 151400Z 05002KT CAVOK 09/M15 Q1039 RMK BIRD HAZARD RWY 12/30 PP000
ORU SLOR Oruro, BO Juan Mendoza Airport 3 5/-4 30.65 SLOR 151400Z 36003KT 9999 NSC 05/M04 Q1038
ANS SPHY Andahuaylas, PE Andahuaylas Airport 2 8/2 30.65 SPHY 151400Z 33002KT 9999 SCT012 BKN060 08/02 Q1038 RMK BIRD HAZARD RWY03/21 PP000
KC07 3 13/4 30.64 KC07 151355Z AUTO 27003KT 10SM BKN065 BKN080 13/04 A3064 RMK AO2
KC99 15 24 12/3 30.63 KC99 151353Z AUTO 29015G24KT 10SM CLR 12/03 A3063 RMK AO2
JAU SPJJ Jauja, PE Francisco Carle Airport 3 10/2 30.62 SPJJ 151400Z 31003KT 260V360 CAVOK 10/02 Q1037 RMK PP000
CUZ SPZO Cusco, PE Alejandro Velasco Astete International Airport 2 10/3 30.62 SPZO 151400Z VRB02KT 9999 FEW020 10/03 Q1037 NOSIG RMK BIRD HAZARD RWY 10/28 PP000
K7BM 11 16 18/2 30.60 K7BM 151355Z AUTO 28011G16KT 240V320 10SM CLR 18/02 A3060 RMK AO2
LXV KLXV Leadville, US Lake County Airport 0 13/5 30.59 KLXV 151353Z AUTO 00000KT 10SM CLR 13/06 A3059 RMK AO2 SLP178 T01330056
TEX KTEX Telluride, US Telluride Regional Airport 3 15/4 30.56 KTEX 151355Z AUTO 13003KT 10SM SCT120 15/04 A3056 RMK AO2
TUA SETU Tulcán, EC Teniente Coronel Luis a Mantilla Airport 7 14/10 30.56 SETU 151400Z 06007KT 9999 BKN020 14/10 Q1035
TLC MMTO Toluca, MX Licenciado Adolfo Lopez Mateos International Airport 3 4 13/12 30.53 MMTO 151341Z 07003KT 4SM FEW020 13/12 A3053 RMK 8/500 HZY AC
LTX SELT Latacunga, EC Cotopaxi International Airport 17 10/9 30.53 SELT 151400Z 17017KT 9999 FEW010 10/09 Q1034
SRE SLAL Yamparaez, BO Alcantarí Airport 0 9/3 30.53 SLAL 151400Z 00000KT 9999 NSC 09/03 Q1034
SUAA Montevideo, UY Angel S Adami Airport 4 10/6 30.53 SUAA 151400Z 02004KT CAVOK 10/06 Q1034
PDP SULS Punta del Este, UY Capitan Corbeta CA Curbelo International Airport 5 7/4 30.53 SULS 151400Z 03005KT 9999 FEW004 07/04 Q1034
MVD SUMU Montevideo, UY Carrasco International /General C L Berisso Airport 1 9/7 30.53 SUMU 151400Z 36001KT CAVOK 09/07 Q1034 NOSIG
AXX KAXX Angel Fire, US Angel Fire Airport 0 14/7 30.50 KAXX 151355Z AUTO 00000KT 10SM CLR 15/08 A3050 RMK AO2 T01460076
AEP SABE Buenos Aires, AR Jorge Newbery Airpark 5 11/9 30.50 SABE 151400Z 01005KT 340V070 CAVOK 11/09 Q1033 NOSIG
FDO SADF San Fernando, AR San Fernando Airport 6 12/8 30.50 SADF 151400Z 03006KT 9999 SCT027 12/08 Q1033
EZE SAEZ Buenos Aires, AR Ministro Pistarini International Airport 4 3.11 12/9 30.50 SAEZ 151400Z 05004KT 5000 BR NSC 12/09 Q1033 NOSIG
MDQ SAZM Mar del Plata, AR Ástor Piazzola International Airport 7 6/1 30.50 SAZM 151400Z 34007KT CAVOK 06/01 Q1033
PET SBPK Pelotas, BR João Simões Lopes Neto International Airport 3 12/12 30.50 SBPK 151400Z 21003KT 9999 SCT010 12/12 Q1033
ATF SEAM Ambato, EC Chachoán Airport 3 14/10 30.50 SEAM 151400Z 16003KT 9999 FEW030 14/10 Q1033
AYP SPHO Ayacucho, PE Coronel FAP Alfredo Mendivil Duarte Airport 2 13/3 30.50 SPHO 151400Z VRB02KT 9999 SCT080 13/03 Q1033 RMK BIRD HAZARD RWY 02/20 PP000
CYR SUCA Colonia del Sacramento, UY Laguna de Los Patos International Airport 6 13/9 30.50 SUCA 151400Z 02006KT 360V070 9999 FEW030 BKN080 13/09 Q1033
DZO SUDU Durazno, UY Santa Bernardina International Airport 5 8/5 30.50 SUDU 151400Z 08005KT 9999 FEW020 08/05 Q1033
K04V 11 15 16/5 30.49 K04V 151355Z AUTO 29011G15KT 10SM CLR 16/05 A3049 RMK AO2 PWINO
KGNB Granby, US Granby Grand County Airport 3 12/-10 30.49 KGNB 151355Z AUTO 36003KT 10SM CLR 13/M10 A3049 RMK AO2 T01281104
GUC KGUC Gunnison, US Gunnison Crested Butte Regional Airport 0 13/5 30.49 KGUC 151356Z AUTO 00000KT 10SM CLR 13/06 A3049 RMK AO2 SLP238 T01330056
KRCV 5 18/5 30.48 KRCV 151350Z AUTO 29005KT 10SM CLR 18/06 A3048 RMK AO2 T01820056
BGX SBBG Bagé, BR Comandante Gustavo Kraemer Airport 9 11/9 30.47 SBBG 151400Z 09009KT 9999 FEW008 11/09 Q1032
SERB Riobamba, EC Chimborazo Airport 5 14/10 30.47 SERB 151400Z 06005KT 9999 SCT040 14/10 Q1032
IPI SKIP Ipiales, CO San Luis Airport 8 13/9 30.47 SKIP 151400Z 10008KT 9999 VCSH BKN016 13/09 Q1032 RMK VCSH/SE
STY SUSO Salto, UY Nueva Hesperides International Airport 7 13/9 30.47 SUSO 151400Z 10007KT CAVOK 13/09 Q1032
NLU MMSM Reyes Acozac, MX Santa Lucia Air Force Base 4 6 15/12 30.46 MMSM 151346Z 33004KT 6SM SCT020 SCT080 15/12 A3046 RMK 8/530 HZY BCFG N NE ISOL CU
ASE KASE Aspen, US Aspen-Pitkin Co/Sardy Field 5 14/6 30.46 KASE 151353Z 15005KT 10SM CLR 14/07 A3046 RMK AO2 SLP195 T01440067
KAEJ Buena Vista, US Central Colorado Regional Airport 16/4 30.46 KAEJ 151355Z AUTO 10SM CLR 16/05 A3046 RMK AO2 T01630049
MEX MMMX Mexico City, MX Licenciado Benito Juarez International Airport 5 8 15/13 30.45 MMMX 151342Z 09005KT 8SM OVC015TCU 15/13 A3045 NOSIG RMK 8/2// HZY
QRO MMQT Querétaro, MX Querétaro Intercontinental Airport 3 8 17/13 30.45 MMQT 151352Z 03003KT 8SM SCT020 17/13 A3045 RMK 8/500
KC08 5 17/5 30.45 KC08 151355Z AUTO 13005KT 10SM CLR 17/05 A3045 RMK AO2